Guilford, Kansas
Current Conditions -  °F | °C
As of 11:52 AM on Monday 24 Nov 2014 (Local Time) from KCNU Reporting Station
Few Clouds Few Clouds  
Wind Chill: 40°   Ceiling: Unl
Heat Index: 47°   Visibility: 10mi
Dew Point: 26°   Wind: 20mph
Humidity: 44%   Direction: 290°WNW
Pressure: 29.84"   Gusts: 28mph
Location:  37.5152°N, 95.6341°W
Report Text: KCNU 241752Z AUTO 29017G24KT 10SM FEW049 08/M03 A2984 RMK AO2 PK WND 28027/1740 SLP105 T00831033 10089 20011 51014
Loading
Personal Weather Stations






























Interactive Weather Map New forecast layout! Learn more

10-Day Weather Forecast

Advertisements
Track Severe Weather on mobile